Calgary / Okotoks Air Park

CFX2 · Alberta, Canada

METAR anciennes CFX2 · Calgary / Okotoks Air Park

Tu vois ci-dessous les METAR des derniers jours. Sélectionne une année pour parcourir les METAR plus anciens, à partir de l'année 2007.

18 juillet 2024

Temps Code Temps Temp. Vue Base cloud Vent METAR/SPECI
02:00
V
21 °C 12 mi - 210° 210° 5 kt METAR CYYC 180800Z 21005KT 12SM FEW220 21/14 A3006 RMK CI1 HZ SLP158 DENSITY ALT 5000FT
01:00
V
22 °C 12 mi - 200° 200° 4 kt METAR CYYC 180700Z 20004KT 12SM SCT170 22/16 A3007 RMK AC3 SLP162 DENSITY ALT 5100FT
00:00
V
23 °C 15 mi - Var Var 2 kt METAR CYYC 180600Z VRB02KT 15SM SCT110 23/15 A3007 RMK AC3 SLP163 DENSITY ALT 5200FT

17 juillet 2024

Temps Code Temps Temp. Vue Base cloud Vent METAR/SPECI
23:00
V
24 °C 12 mi 22.000 ft 150° 150° 5 kt METAR CYYC 180500Z 15005KT 12SM SCT120 BKN220 24/10 A3006 RMK AC3CI2 SLP163 DENSITY ALT 5300FT
22:00
V
24 °C 15 mi - 170° 170° 7 kt METAR CYYC 180400Z 17007KT 15SM SCT140 24/08 A3007 RMK AC3 DIST CB TOPS NE SLP166 DENSITY ALT 5400FT
21:00
V
27 °C 10 mi 16.000 ft 170° 170° 9 kt METAR CYYC 180300Z 17009KT 10SM BKN160 BKN230 27/08 A3006 RMK AC5CI1 DIST CB TOPS NE/ HZ SLP162 DENSITY ALT 5700FT
20:00
V
29 °C 10 mi - 190° 190° 8 kt METAR CYYC 180200Z 19008KT 10SM SCT160 29/12 A3005 RMK AC3 HZ SLP160 DENSITY ALT 5800FT
19:00
V
30 °C 15 mi 25.000 ft 170° 170° 11 kt METAR CYYC 180100Z 17011KT 15SM BKN250 30/14 A3005 RMK CI7 HZ / CB TOPS NE-E SLP160 DENSITY ALT 6100FT
18:00
V
31 °C 15 mi 25.000 ft 190° 190° 11 - 17 kt METAR CYYC 180000Z 19011G17KT 15SM FEW074CB BKN250 31/14 A3006 RMK CB1CI6 HZ / CB E AND SW MOVG NE SLP161 DENSITY ALT 6100FT
17:00
V
31 °C 15 mi - 170° 170° 9 - 17 kt METAR CYYC 172300Z 17009G17KT 15SM FEW067CB SCT250 31/15 A3008 RMK CB1CI4 CB TR HZ / CB SW MOVG NE SLP165 DENSITY ALT 6100FT
16:00
V
31 °C 15 mi - 160° 160° 11 - 17 kt METAR CYYC 172200Z 16011G17KT 15SM FEW068CB SCT250 31/14 A3009 RMK CB1CI3 HZ / CB NE-E AND S-W MOVG NE SLP169 DENSITY ALT 6100FT
15:00
V
30 °C 15 mi - 120° 120° 11 kt METAR CYYC 172100Z 12011KT 110V200 15SM FEW060CB SCT250 30/15 A3010 RMK CB1CI2 HZ / CB SW-W MOVG E SLP173 DENSITY ALT 6000FT
14:00
V
30 °C 15 mi - 160° 160° 8 kt METAR CYYC 172000Z 16008KT 110V190 15SM FEW058CB FEW250 30/14 A3011 RMK CB1CI1 HZ / CB S-SW MOVG E SLP176 DENSITY ALT 5900FT
13:00
V
29 °C 9 mi - 150° 150° 8 kt METAR CYYC 171900Z 15008KT 080V240 9SM FEW054CB FEW120 SCT250 29/16 A3011 RMK CB1AC1CI2 HZ / CB SW MOVG E SLP178 DENSITY ALT 5800FT
12:00
V
26 °C 9 mi - 180° 180° 6 kt METAR CYYC 171800Z 18006KT 9SM FEW120 FEW250 26/17 A3013 RMK AC2CI1 CI TR HZ / CB TOPS SW SLP186 DENSITY ALT 5500FT
11:00
V
25 °C 9 mi - 160° 160° 7 kt METAR CYYC 171700Z 16007KT 110V190 9SM SCT120 SCT250 25/16 A3013 RMK AC4CI1 CI TR HZ / ACC ASOCTD SLP188 DENSITY ALT 5300FT
10:00
V
23 °C 15 mi 12.000 ft 190° 190° 5 kt METAR CYYC 171600Z 19005KT 15SM BKN120 23/15 A3013 RMK AC7 ACC ASOCTD / DIST SH E SLP189 DENSITY ALT 5100FT
09:00
V
21 °C 20 mi 12.000 ft 240° 240° 3 kt METAR CYYC 171500Z 24003KT 200V280 20SM BKN120 BKN140 BKN250 21/15 A3013 RMK AC6AC1CI1 CI TR ACC ASOCTD / VIRGA SE-S SLP187 DENSITY ALT 4900FT
08:00
V
20 °C 15 mi 12.000 ft 360° 360° 0 kt METAR CYYC 171400Z 00000KT 15SM BKN120 20/15 A3012 RMK AC7 DIST SH S SLP186 DENSITY ALT 4800FT
07:00
V
17 °C 20 mi 14.000 ft 340° 340° 4 kt METAR CYYC 171300Z 34004KT 20SM BKN140 17/14 A3012 RMK AC5 DIST SH S/DIST CB TOPS S SLP185 DENSITY ALT 4500FT
06:00
V
17 °C 15 mi - 360° 360° 0 kt METAR CYYC 171200Z 00000KT 15SM SCT150 17/14 A3011 RMK AC3 DIST CB TOPS E SLP184 DENSITY ALT 4600FT
05:00
V
19 °C 15 mi - 210° 210° 2 kt METAR CYYC 171100Z 21002KT 15SM FEW180 19/15 A3010 RMK AC1 AC TR DIST CB TOPS E/DIST OCNL LTGCG E IN THE PAST 15 MINS SLP174 DENSITY ALT 4800FT
04:00
V
20 °C 15 mi - 200° 200° 4 kt METAR CYYC 171000Z 20004KT 15SM FEW220 20/15 A3010 RMK CI1 CI TR DIST FREQ LTGCG E SLP177 DENSITY ALT 4800FT
03:00
V
20 °C 15 mi - 190° 190° 3 kt METAR CYYC 170900Z 19003KT 15SM FEW130 20/15 A3011 RMK AC2 SLP180 DENSITY ALT 4900FT
02:00
V
21 °C 15 mi 13.000 ft 160° 160° 5 kt METAR CYYC 170800Z 16005KT 15SM BKN130 21/15 A3011 RMK AC5 SLP178 DENSITY ALT 4900FT
01:00
V
21 °C 10 mi 12.000 ft 190° 190° 5 kt METAR CYYC 170700Z 19005KT 10SM BKN120 21/15 A3011 RMK AC6 SLP178 DENSITY ALT 5000FT
00:00
V
21 °C 15 mi - 180° 180° 6 kt METAR CYYC 170600Z 18006KT 15SM SCT120 21/15 A3010 RMK AC3 SLP178 DENSITY ALT 5000FT

16 juillet 2024

Temps Code Temps Temp. Vue Base cloud Vent METAR/SPECI
23:00
V
21 °C 10 mi - 180° 180° 6 kt METAR CYYC 170500Z 18006KT 10SM SCT130 21/14 A3010 RMK AC3 SLP179 DENSITY ALT 5000FT
22:00
V
24 °C 10 mi - 170° 170° 6 kt METAR CYYC 170400Z 17006KT 10SM FEW140 SCT250 24/14 A3010 RMK AC1CI2 SLP176 DENSITY ALT 5300FT
21:00
V
25 °C 10 mi - 150° 150° 11 kt METAR CYYC 170300Z 15011KT 10SM FEW140 SCT250 25/15 A3009 RMK AC1CI2 CB TOPS S SLP172 DENSITY ALT 5500FT
20:00
V
27 °C 10 mi - 160° 160° 9 kt METAR CYYC 170200Z 16009KT 10SM FEW140 SCT240 27/15 A3009 RMK AC2CI2 CB TOPS S SLP174 DENSITY ALT 5600FT
19:00
V
28 °C 15 mi - 140° 140° 10 kt METAR CYYC 170100Z 14010KT 15SM FEW150 SCT280 28/14 A3009 RMK AC2CI3 CB TOPS ALQDS SLP174 DENSITY ALT 5700FT
18:00
V
27 °C 15 mi 23.000 ft 170° 170° 8 kt METAR CYYC 170000Z 17008KT 15SM BKN230 27/14 A3010 RMK CI6 SLP180 DENSITY ALT 5600FT
17:00
V
29 °C 8 mi 5.300 ft 160° 160° 11 - 16 kt METAR CYYC 162300Z 16011G16KT 120V190 8SM BKN053CB 29/15 A3009 RMK CB5 SLP173 DENSITY ALT 5900FT
16:00
V
28 °C 10 mi - 130° 130° 12 - 18 kt METAR CYYC 162200Z 13012G18KT 110V170 10SM SCT054CB 28/15 A3010 RMK CB4 SLP178 DENSITY ALT 5700FT
15:00
V
27 °C 10 mi - 160° 160° 12 kt METAR CYYC 162100Z 16012KT 080V180 10SM FEW048CB SCT150 27/15 A3011 RMK CB2AC1 ACSL ASOCTD CB TOPS SW AND NW SLP182 DENSITY ALT 5600FT
14:00
V
27 °C 10 mi - 130° 130° 11 - 17 kt METAR CYYC 162000Z 13011G17KT 10SM FEW053CB FEW160 27/14 A3011 RMK CB1AC1 AC TR CB TOPS NW SLP178 DENSITY ALT 5600FT
13:00
V
27 °C 10 mi - 090° 090° 10 - 16 kt METAR CYYC 161900Z 09010G16KT 10SM FEW043TCU 27/16 A3012 RMK TCU1 SLP182 DENSITY ALT 5600FT
12:00
V
26 °C 8 mi - 080° 080° 9 kt METAR CYYC 161800Z 08009KT 070V130 8SM FEW041TCU 26/16 A3012 RMK TCU1 HZ SLP182 DENSITY ALT 5500FT
11:00
V
25 °C 8 mi - 180° 180° 5 kt METAR CYYC 161700Z 18005KT 140V230 8SM FEW049 SCT090 25/13 A3012 RMK CU1ACC3 CU TR HZ SLP182 DENSITY ALT 5400FT
10:00
V
23 °C 8 mi - 170° 170° 4 kt METAR CYYC 161600Z 17004KT 100V200 8SM SCT091 23/13 A3012 RMK ACC3 SLP186 DENSITY ALT 5200FT
09:00
V
23 °C 15 mi - 360° 360° 0 kt METAR CYYC 161500Z 00000KT 15SM FEW110 23/14 A3011 RMK ACC2 SLP181 DENSITY ALT 5200FT
08:00
V
20 °C 10 mi - 360° 360° 0 kt METAR CYYC 161400Z 00000KT 10SM FEW110 20/13 A3011 RMK AC2 SLP182 DENSITY ALT 4800FT
07:00
V
18 °C 15 mi 10.000 ft 260° 260° 5 kt METAR CYYC 161300Z 26005KT 220V290 15SM BKN100 BKN180 18/13 A3010 RMK AC5AC1 ACC ASOCTD NE SLP178 DENSITY ALT 4700FT
06:00
V
17 °C 15 mi 11.000 ft 360° 360° 0 kt METAR CYYC 161200Z 00000KT 15SM SCT084 BKN110 17/13 A3009 RMK AC3AC3 SLP176 DENSITY ALT 4600FT
05:00
V
18 °C 15 mi 14.000 ft 330° 330° 4 kt METAR CYYC 161100Z 33004KT 320V020 15SM R35R/3000VP6000FT/U FEW072 BKN140 18/14 A3007 RMK AC2AC3 SLP170 DENSITY ALT 4600FT
04:00
V
19 °C 15 mi 11.000 ft 360° 360° 4 kt METAR CYYC 161000Z 36004KT 300V060 15SM FEW056CB SCT074 BKN110 19/14 A3007 RMK CB1AC3AC4 CB TR CB NE-E SLP167 DENSITY ALT 4800FT
03:00
V
18 °C 15 mi 6.800 ft 010° 010° 4 kt METAR CYYC 160900Z 01004KT 15SM FEW056CB BKN068 BKN110 18/14 A3006 RMK CB1AC5AC2 CB TR CB N-SE MOVG SE/OCNL LTGICCG NE-E SLP164 DENSITY ALT 4700FT
02:48
V
18 °C 15 mi 11.000 ft 350° 350° 3 kt METAR CYYC 160848Z 35003KT 15SM FEW056CB BKN110 18/14 A3005 RMK CB1AC5 CB TR CB N-SE MOVG SE/OCNL LTGICCG NE-E SLP161 DENSITY ALT 4700FT
02:00
V
21 °C 15 mi 11.000 ft Var Var 2 kt METAR CYYC 160800Z VRB02KT 15SM TS FEW056CB BKN110 BKN190 21/14 A3004 RMK CB1AC5AC1 CB TR CB N AND E MOVG SE/OCNL LTGICCG N AND FREQ LTGICCG E SLP155 DENSITY ALT 5100FT
01:00
V
22 °C 15 mi 11.000 ft 180° 180° 3 kt METAR CYYC 160700Z 18003KT 15SM FEW056CB BKN110 22/14 A3004 RMK CB1AC5 CB TR DIST SH NE/FREQ LTGICCG NE/CB N-NE MOVG S SLP153 DENSITY ALT 5100FT
00:56
V
22 °C 15 mi 11.000 ft 190° 190° 4 kt METAR CYYC 160656Z 19004KT 15SM TS FEW056CB BKN110 22/13 A3004 RMK CB1AC5 CB TR OCNL LTGIC NE/CB NE MOVG S SLP153 DENSITY ALT 5200FT
00:00
V
22 °C 15 mi 17.000 ft 190° 190° 2 kt METAR CYYC 160600Z 19002KT 15SM SCT110 BKN170 22/14 A3003 RMK AC3AC3 SLP150 DENSITY ALT 5200FT
Signaler les modifications